Westby, North Dakota
Current Conditions -  °F | °C
As of 6:40 PM on Thursday 18 Dec 2014 (Local Time) from KISN Reporting Station
Overcast Overcast  
Wind Chill: 23°   Ceiling: 400
Heat Index: 29°   Visibility: 9mi
Dew Point: 26°   Wind: 6mph
Humidity: 89%   Direction: 200°SSW
Pressure: 29.95"   Gusts: NA
Location:  48.5901°N, 103.922°W
Report Text: KISN 190040Z AUTO 20005KT 9SM OVC004 M02/M03 A2995 RMK AO2 T10171033
Loading
Personal Weather Stations






























Interactive Weather Map New forecast layout! Learn more

10-Day Weather Forecast

Advertisements
Track Severe Weather on mobile